createdAt,value
2016-11-26T00:00:12.614Z,955.04
2016-11-26T00:01:13.168Z,955.06
2016-11-26T00:02:13.158Z,955.08
2016-11-26T00:03:12.932Z,955.07
2016-11-26T00:04:12.517Z,955.08
2016-11-26T00:05:13.916Z,955.09
2016-11-26T00:06:14.343Z,955.07
2016-11-26T00:07:13.513Z,955.08
2016-11-26T00:08:12.944Z,955.10
2016-11-26T00:09:11.825Z,955.09
2016-11-26T00:10:12.487Z,955.07
2016-11-26T00:11:12.938Z,955.08
2016-11-26T00:12:12.054Z,955.10
2016-11-26T00:13:13.609Z,955.13
2016-11-26T00:14:15.187Z,955.14
2016-11-26T00:15:13.344Z,955.12
2016-11-26T00:16:12.454Z,955.15
2016-11-26T00:17:14.197Z,955.08
2016-11-26T00:18:12.183Z,955.11
2016-11-26T00:19:12.799Z,955.04
2016-11-26T00:20:13.386Z,955.02
2016-11-26T00:21:12.886Z,955.03
2016-11-26T00:22:13.415Z,955.03
2016-11-26T00:23:11.200Z,955.02
2016-11-26T00:24:12.930Z,955.03
2016-11-26T00:25:12.734Z,955.08
2016-11-26T00:26:11.684Z,955.02
2016-11-26T00:27:13.316Z,955.04
2016-11-26T00:28:13.608Z,955.01
2016-11-26T00:29:12.561Z,955.03
2016-11-26T00:30:13.174Z,955.01
2016-11-26T00:31:12.874Z,954.99
2016-11-26T00:32:11.922Z,955.00
2016-11-26T00:33:12.622Z,955.01
2016-11-26T00:34:13.272Z,955.01
2016-11-26T00:35:12.789Z,955.02
2016-11-26T00:36:12.256Z,955.03
2016-11-26T00:37:12.282Z,955.05
2016-11-26T00:38:12.991Z,955.09
2016-11-26T00:39:12.452Z,955.09
2016-11-26T00:40:14.010Z,955.14
2016-11-26T00:41:12.561Z,955.09
2016-11-26T00:42:13.200Z,955.11
2016-11-26T00:43:12.299Z,955.08
2016-11-26T00:44:12.788Z,955.09
2016-11-26T00:45:11.922Z,955.08
2016-11-26T00:46:12.561Z,955.11
2016-11-26T00:47:12.648Z,955.13
2016-11-26T00:48:12.660Z,955.20
2016-11-26T00:49:12.753Z,955.23
2016-11-26T00:50:12.539Z,955.23
2016-11-26T00:51:13.667Z,955.28
2016-11-26T00:52:19.124Z,955.26
2016-11-26T00:53:13.101Z,955.24
2016-11-26T00:54:13.798Z,955.28
2016-11-26T00:55:12.586Z,955.29
2016-11-26T00:56:13.165Z,955.28
2016-11-26T00:57:12.826Z,955.32
2016-11-26T00:58:12.599Z,955.33
2016-11-26T00:59:12.762Z,955.34
2016-11-26T01:00:12.539Z,955.33
2016-11-26T01:01:10.582Z,955.33
2016-11-26T01:02:13.276Z,955.37
2016-11-26T01:03:13.119Z,955.36
2016-11-26T01:04:12.807Z,955.31
2016-11-26T01:05:12.900Z,955.32
2016-11-26T01:06:12.609Z,955.32
2016-11-26T01:07:13.289Z,955.36
2016-11-26T01:08:13.269Z,955.36
2016-11-26T01:09:12.690Z,955.41
2016-11-26T01:10:11.329Z,955.38
2016-11-26T01:11:12.919Z,955.36
2016-11-26T01:12:12.080Z,955.36
2016-11-26T01:13:12.520Z,955.34
2016-11-26T01:14:14.109Z,955.35
2016-11-26T01:15:12.147Z,955.38
2016-11-26T01:16:12.818Z,955.34
2016-11-26T01:17:12.489Z,955.38
2016-11-26T01:18:11.633Z,955.35
2016-11-26T01:19:12.656Z,955.35
2016-11-26T01:20:14.880Z,955.31
2016-11-26T01:21:12.635Z,955.34
2016-11-26T01:22:13.188Z,955.32
2016-11-26T01:23:12.286Z,955.33
2016-11-26T01:24:13.088Z,955.31
2016-11-26T01:25:12.991Z,955.29
2016-11-26T01:26:13.695Z,955.31
2016-11-26T01:27:13.548Z,955.29
2016-11-26T01:28:13.584Z,955.24
2016-11-26T01:29:14.024Z,955.22
2016-11-26T01:30:16.619Z,955.19
2016-11-26T01:31:13.436Z,955.22
2016-11-26T01:32:13.972Z,955.19
2016-11-26T01:33:14.199Z,955.19
2016-11-26T01:34:13.928Z,955.25
2016-11-26T01:35:13.755Z,955.26
2016-11-26T01:36:17.966Z,955.18
2016-11-26T01:37:15.258Z,955.20
2016-11-26T01:38:20.131Z,955.22
2016-11-26T01:39:17.988Z,955.22
2016-11-26T01:40:14.339Z,955.19
2016-11-26T01:41:13.418Z,955.21
2016-11-26T01:42:14.219Z,955.20
2016-11-26T01:43:13.229Z,955.24
2016-11-26T01:44:12.136Z,955.21
2016-11-26T01:45:13.744Z,955.24
2016-11-26T01:46:14.394Z,955.22
2016-11-26T01:47:13.610Z,955.21
2016-11-26T01:48:12.977Z,955.21
2016-11-26T01:49:12.191Z,955.18
2016-11-26T01:50:14.010Z,955.24
2016-11-26T01:51:13.553Z,955.20
2016-11-26T01:52:14.098Z,955.24
2016-11-26T01:53:15.638Z,955.17
2016-11-26T01:54:14.371Z,955.15
2016-11-26T01:55:13.100Z,955.14
2016-11-26T01:56:14.519Z,955.17
2016-11-26T01:57:10.661Z,955.14
2016-11-26T01:58:14.942Z,955.17
2016-11-26T01:59:17.970Z,955.17
2016-11-26T02:00:13.910Z,955.12
2016-11-26T02:01:14.498Z,955.11
2016-11-26T02:02:12.830Z,955.18
2016-11-26T02:03:13.283Z,955.13
2016-11-26T02:04:14.410Z,955.13
2016-11-26T02:05:12.341Z,955.11
2016-11-26T02:06:15.204Z,955.22
2016-11-26T02:07:13.195Z,955.14
2016-11-26T02:08:14.790Z,955.17
2016-11-26T02:09:13.118Z,955.19
2016-11-26T02:10:14.004Z,955.17
2016-11-26T02:11:14.478Z,955.17
2016-11-26T02:12:12.450Z,955.19
2016-11-26T02:13:12.591Z,955.20
2016-11-26T02:14:14.084Z,955.12
2016-11-26T02:15:13.412Z,955.17
2016-11-26T02:16:13.192Z,955.14
2016-11-26T02:17:14.618Z,955.17
2016-11-26T02:18:14.882Z,955.17
2016-11-26T02:19:11.951Z,955.11
2016-11-26T02:20:13.431Z,955.17
2016-11-26T02:21:12.920Z,955.11
2016-11-26T02:22:12.002Z,955.12
2016-11-26T02:23:12.298Z,955.08
2016-11-26T02:24:12.697Z,955.09
2016-11-26T02:25:13.546Z,955.10
2016-11-26T02:26:14.429Z,955.05
2016-11-26T02:27:14.428Z,955.01
2016-11-26T02:28:14.062Z,955.02
2016-11-26T02:29:14.725Z,955.04
2016-11-26T02:30:17.748Z,955.05
2016-11-26T02:31:14.552Z,955.03
2016-11-26T02:32:13.445Z,955.00
2016-11-26T02:33:13.290Z,954.99
2016-11-26T02:34:13.131Z,954.96
2016-11-26T02:35:14.652Z,954.99
2016-11-26T02:36:12.628Z,954.95
2016-11-26T02:37:15.042Z,954.96
2016-11-26T02:38:14.796Z,954.94
2016-11-26T02:39:13.872Z,954.95
2016-11-26T02:40:13.974Z,954.95
2016-11-26T02:41:14.944Z,954.92
2016-11-26T02:42:14.344Z,954.93
2016-11-26T02:43:14.115Z,954.91
2016-11-26T02:44:13.054Z,954.88
2016-11-26T02:45:12.662Z,954.90
2016-11-26T02:46:14.066Z,954.87
2016-11-26T02:47:12.922Z,954.86
2016-11-26T02:48:13.007Z,954.85
2016-11-26T02:49:12.567Z,954.88
2016-11-26T02:50:12.590Z,954.88
2016-11-26T02:51:13.212Z,954.89
2016-11-26T02:52:13.209Z,954.84
2016-11-26T02:53:12.883Z,954.86
2016-11-26T02:54:13.225Z,954.83
2016-11-26T02:55:13.884Z,954.83
2016-11-26T02:56:12.893Z,954.85
2016-11-26T02:57:12.405Z,954.85
2016-11-26T02:58:12.558Z,954.88
2016-11-26T02:59:13.145Z,954.87
2016-11-26T03:00:13.253Z,954.87
2016-11-26T03:01:12.664Z,954.90
2016-11-26T03:02:12.614Z,954.88
2016-11-26T03:03:12.565Z,954.90
2016-11-26T03:04:14.145Z,954.92
2016-11-26T03:05:13.096Z,954.93
2016-11-26T03:06:12.043Z,954.89
2016-11-26T03:07:13.817Z,954.89
2016-11-26T03:08:11.867Z,954.88
2016-11-26T03:09:10.002Z,954.89
2016-11-26T03:10:12.930Z,954.92
2016-11-26T03:11:14.526Z,954.88
2016-11-26T03:12:13.152Z,954.90
2016-11-26T03:13:13.324Z,954.93
2016-11-26T03:14:12.354Z,954.94
2016-11-26T03:15:12.434Z,954.93
2016-11-26T03:16:13.562Z,954.93
2016-11-26T03:17:12.671Z,954.93
2016-11-26T03:18:11.887Z,954.91
2016-11-26T03:19:11.088Z,954.95
2016-11-26T03:20:13.417Z,954.95
2016-11-26T03:21:13.101Z,954.92
2016-11-26T03:22:12.752Z,954.91
2016-11-26T03:23:12.370Z,954.91
2016-11-26T03:24:13.528Z,954.89
2016-11-26T03:25:13.214Z,954.93
2016-11-26T03:26:12.834Z,954.92
2016-11-26T03:27:11.808Z,954.91
2016-11-26T03:28:12.819Z,954.94
2016-11-26T03:29:12.503Z,954.96
2016-11-26T03:30:12.576Z,954.95
2016-11-26T03:31:13.322Z,954.98
2016-11-26T03:32:12.858Z,954.95
2016-11-26T03:33:13.472Z,954.95
2016-11-26T03:34:13.175Z,954.95
2016-11-26T03:35:12.907Z,954.98
2016-11-26T03:36:12.769Z,954.97
2016-11-26T03:37:12.750Z,954.96
2016-11-26T03:38:11.814Z,954.92
2016-11-26T03:39:12.223Z,954.97
2016-11-26T03:40:13.056Z,954.95
2016-11-26T03:41:10.255Z,954.98
2016-11-26T03:42:15.848Z,954.98
2016-11-26T03:43:13.384Z,954.98
2016-11-26T03:44:14.935Z,954.98
2016-11-26T03:45:13.067Z,955.01
2016-11-26T03:46:12.026Z,955.02
2016-11-26T03:47:12.576Z,954.97
2016-11-26T03:48:13.164Z,954.96
2016-11-26T03:49:12.809Z,954.97
2016-11-26T03:50:11.890Z,954.99
2016-11-26T03:51:13.266Z,954.96
2016-11-26T03:52:13.128Z,955.00
2016-11-26T03:53:12.336Z,954.96
2016-11-26T03:54:12.456Z,954.92
2016-11-26T03:55:14.077Z,954.94
2016-11-26T03:56:13.722Z,954.94
2016-11-26T03:57:13.868Z,954.95
2016-11-26T03:58:13.035Z,954.95
2016-11-26T03:59:12.709Z,954.94
2016-11-26T04:00:11.543Z,954.93
2016-11-26T04:01:13.648Z,954.92
2016-11-26T04:02:13.177Z,954.94
2016-11-26T04:03:13.037Z,954.96
2016-11-26T04:04:12.085Z,954.95
2016-11-26T04:05:12.138Z,954.90
2016-11-26T04:06:13.358Z,954.91
2016-11-26T04:07:13.328Z,954.92
2016-11-26T04:08:12.898Z,954.90
2016-11-26T04:09:12.950Z,954.92
2016-11-26T04:10:12.651Z,954.92
2016-11-26T04:11:14.578Z,954.94
2016-11-26T04:12:13.107Z,954.98
2016-11-26T04:13:12.775Z,954.95
2016-11-26T04:14:12.621Z,954.98
2016-11-26T04:15:13.224Z,954.98
2016-11-26T04:16:12.277Z,954.99
2016-11-26T04:17:12.891Z,954.96
2016-11-26T04:18:12.478Z,954.96
2016-11-26T04:19:12.941Z,954.98
2016-11-26T04:20:14.489Z,954.96
2016-11-26T04:21:12.895Z,954.97
2016-11-26T04:22:12.002Z,954.97
2016-11-26T04:23:12.784Z,954.98
2016-11-26T04:24:13.102Z,954.99
2016-11-26T04:25:12.837Z,954.96
2016-11-26T04:26:13.498Z,955.02
2016-11-26T04:27:11.318Z,954.98
2016-11-26T04:28:14.179Z,955.01
2016-11-26T04:29:12.323Z,954.99
2016-11-26T04:30:11.038Z,954.96
2016-11-26T04:31:12.523Z,954.95
2016-11-26T04:32:12.446Z,954.96
2016-11-26T04:33:13.012Z,954.97
2016-11-26T04:34:12.232Z,954.96
2016-11-26T04:35:13.128Z,954.91
2016-11-26T04:36:12.201Z,954.91
2016-11-26T04:37:13.128Z,954.92
2016-11-26T04:38:13.760Z,954.92
2016-11-26T04:39:12.462Z,954.89
2016-11-26T04:40:13.622Z,954.90
2016-11-26T04:41:13.302Z,954.88
2016-11-26T04:42:14.791Z,954.88
2016-11-26T04:43:13.112Z,954.91
2016-11-26T04:44:12.919Z,954.89
2016-11-26T04:45:12.069Z,954.92
2016-11-26T04:46:12.722Z,954.90
2016-11-26T04:47:11.501Z,954.94
2016-11-26T04:48:13.617Z,954.88
2016-11-26T04:49:15.041Z,954.87
2016-11-26T04:50:12.772Z,954.85
2016-11-26T04:51:13.301Z,954.83
2016-11-26T04:52:12.972Z,954.85
2016-11-26T04:53:12.781Z,954.83
2016-11-26T04:54:11.896Z,954.82
2016-11-26T04:55:11.929Z,954.80
2016-11-26T04:56:11.980Z,954.81
2016-11-26T04:57:12.004Z,954.82
2016-11-26T04:58:12.901Z,954.86
2016-11-26T04:59:12.043Z,954.83
2016-11-26T05:00:13.738Z,954.83
2016-11-26T05:01:13.584Z,954.82
2016-11-26T05:02:13.222Z,954.83
2016-11-26T05:03:13.001Z,954.78
2016-11-26T05:04:12.101Z,954.83
2016-11-26T05:05:12.884Z,954.83
2016-11-26T05:06:13.589Z,954.81
2016-11-26T05:07:12.616Z,954.83
2016-11-26T05:08:13.473Z,954.83
2016-11-26T05:09:12.910Z,954.77
2016-11-26T05:10:12.566Z,954.78
2016-11-26T05:11:12.613Z,954.76
2016-11-26T05:12:12.502Z,954.75
2016-11-26T05:13:12.849Z,954.77
2016-11-26T05:14:11.883Z,954.75
2016-11-26T05:15:13.682Z,954.74
2016-11-26T05:16:11.740Z,954.73
2016-11-26T05:17:12.847Z,954.74
2016-11-26T05:18:12.662Z,954.73
2016-11-26T05:19:12.640Z,954.74
2016-11-26T05:20:13.153Z,954.71
2016-11-26T05:21:13.538Z,954.73
2016-11-26T05:22:13.980Z,954.67
2016-11-26T05:23:11.153Z,954.67
2016-11-26T05:24:13.560Z,954.69
2016-11-26T05:25:16.857Z,954.68
2016-11-26T05:26:12.813Z,954.64
2016-11-26T05:27:12.549Z,954.62
2016-11-26T05:28:13.127Z,954.63
2016-11-26T05:29:13.184Z,954.62
2016-11-26T05:30:14.383Z,954.61
2016-11-26T05:31:12.937Z,954.64
2016-11-26T05:32:12.060Z,954.58
2016-11-26T05:33:12.067Z,954.57
2016-11-26T05:34:12.853Z,954.59
2016-11-26T05:35:12.699Z,954.54
2016-11-26T05:36:12.752Z,954.54
2016-11-26T05:37:11.892Z,954.54
2016-11-26T05:38:12.772Z,954.53
2016-11-26T05:39:14.731Z,954.55
2016-11-26T05:40:12.712Z,954.55
2016-11-26T05:41:11.374Z,954.61
2016-11-26T05:42:13.874Z,954.58
2016-11-26T05:43:12.673Z,954.57
2016-11-26T05:44:14.178Z,954.59
2016-11-26T05:45:12.267Z,954.57
2016-11-26T05:46:12.322Z,954.53
2016-11-26T05:47:12.453Z,954.54
2016-11-26T05:48:12.510Z,954.54
2016-11-26T05:49:13.102Z,954.58
2016-11-26T05:50:13.727Z,954.57
2016-11-26T05:51:13.182Z,954.59
2016-11-26T05:52:13.092Z,954.63
2016-11-26T05:53:12.404Z,954.60
2016-11-26T05:54:12.368Z,954.64
2016-11-26T05:55:12.331Z,954.65
2016-11-26T05:56:12.351Z,954.68
2016-11-26T05:57:13.086Z,954.69
2016-11-26T05:58:12.215Z,954.66
2016-11-26T05:59:12.333Z,954.67
2016-11-26T06:00:12.328Z,954.69
2016-11-26T06:01:12.941Z,954.69
2016-11-26T06:02:12.424Z,954.65
2016-11-26T06:03:13.153Z,954.65
2016-11-26T06:04:15.457Z,954.69
2016-11-26T06:05:14.299Z,954.66
2016-11-26T06:06:12.166Z,954.69
2016-11-26T06:07:12.734Z,954.64
2016-11-26T06:08:14.236Z,954.66
2016-11-26T06:09:12.231Z,954.65
2016-11-26T06:10:12.779Z,954.68
2016-11-26T06:11:12.843Z,954.69
2016-11-26T06:12:11.916Z,954.67
2016-11-26T06:13:12.471Z,954.67
2016-11-26T06:14:13.208Z,954.67
2016-11-26T06:15:13.181Z,954.71
2016-11-26T06:16:12.210Z,954.69
2016-11-26T06:17:13.851Z,954.74
2016-11-26T06:18:12.297Z,954.71
2016-11-26T06:19:13.243Z,954.76
2016-11-26T06:20:12.953Z,954.80
2016-11-26T06:21:12.010Z,954.80
2016-11-26T06:22:13.626Z,954.83
2016-11-26T06:23:12.805Z,954.84
2016-11-26T06:24:11.727Z,954.83
2016-11-26T06:25:13.211Z,954.78
2016-11-26T06:26:12.197Z,954.83
2016-11-26T06:27:12.626Z,954.81
2016-11-26T06:28:13.151Z,954.84
2016-11-26T06:29:12.367Z,954.84
2016-11-26T06:30:12.491Z,954.85
2016-11-26T06:31:14.305Z,954.83
2016-11-26T06:32:13.323Z,954.87
2016-11-26T06:33:13.745Z,954.86
2016-11-26T06:34:12.826Z,954.84
2016-11-26T06:35:12.777Z,954.83
2016-11-26T06:36:12.169Z,954.84
2016-11-26T06:37:12.667Z,954.86
2016-11-26T06:38:13.148Z,954.81
2016-11-26T06:39:10.320Z,954.82
2016-11-26T06:40:13.130Z,954.84
2016-11-26T06:41:12.218Z,954.78
2016-11-26T06:42:12.801Z,954.80
2016-11-26T06:43:11.816Z,954.82
2016-11-26T06:44:12.445Z,954.85
2016-11-26T06:45:12.978Z,954.78
2016-11-26T06:46:10.991Z,954.83
2016-11-26T06:47:12.995Z,954.81
2016-11-26T06:48:12.096Z,954.83
2016-11-26T06:49:12.130Z,954.85
2016-11-26T06:50:12.898Z,954.85
2016-11-26T06:51:12.037Z,954.84
2016-11-26T06:52:12.979Z,954.82
2016-11-26T06:53:12.050Z,954.83
2016-11-26T06:54:11.165Z,954.85
2016-11-26T06:55:12.613Z,954.89
2016-11-26T06:56:18.829Z,954.87
2016-11-26T06:57:11.698Z,954.83
2016-11-26T06:58:12.638Z,954.82
2016-11-26T06:59:13.185Z,954.75
2016-11-26T07:00:11.212Z,954.81
2016-11-26T07:01:13.697Z,954.80
2016-11-26T07:02:10.217Z,954.85
2016-11-26T07:03:13.034Z,954.80
2016-11-26T07:04:12.229Z,954.80
2016-11-26T07:05:11.206Z,954.80
2016-11-26T07:06:13.248Z,954.79
2016-11-26T07:07:12.186Z,954.75
2016-11-26T07:08:13.736Z,954.77
2016-11-26T07:09:13.543Z,954.77
2016-11-26T07:10:13.108Z,954.75
2016-11-26T07:11:12.179Z,954.81
2016-11-26T07:12:12.968Z,954.85
2016-11-26T07:13:12.025Z,954.81
2016-11-26T07:14:12.727Z,954.80
2016-11-26T07:15:13.297Z,954.85
2016-11-26T07:16:12.285Z,954.84
2016-11-26T07:17:12.965Z,954.89
2016-11-26T07:18:13.891Z,954.86
2016-11-26T07:19:11.987Z,954.91
2016-11-26T07:20:12.579Z,954.90
2016-11-26T07:21:13.267Z,954.93
2016-11-26T07:22:12.375Z,954.95
2016-11-26T07:23:13.467Z,954.93
2016-11-26T07:24:13.175Z,954.93
2016-11-26T07:25:13.601Z,954.96
2016-11-26T07:26:14.023Z,954.97
2016-11-26T07:27:13.615Z,954.98
2016-11-26T07:28:12.651Z,955.00
2016-11-26T07:29:14.504Z,954.96
2016-11-26T07:30:12.424Z,954.97
2016-11-26T07:31:12.923Z,954.96
2016-11-26T07:32:12.371Z,954.98
2016-11-26T07:33:12.629Z,955.02
2016-11-26T07:34:10.932Z,955.01
2016-11-26T07:35:12.696Z,955.01
2016-11-26T07:36:13.251Z,954.98
2016-11-26T07:37:12.271Z,954.99
2016-11-26T07:38:12.965Z,955.03
2016-11-26T07:39:12.096Z,954.98
2016-11-26T07:40:10.278Z,955.03
2016-11-26T07:41:12.773Z,955.02
2016-11-26T07:42:11.730Z,955.00
2016-11-26T07:43:14.332Z,955.02
2016-11-26T07:44:12.409Z,955.06
2016-11-26T07:45:12.461Z,955.07
2016-11-26T07:46:18.614Z,955.05
2016-11-26T07:47:13.184Z,955.06
2016-11-26T07:48:13.147Z,955.07
2016-11-26T07:49:12.705Z,955.06
2016-11-26T07:50:15.280Z,955.06
2016-11-26T07:51:10.972Z,955.06
2016-11-26T07:52:13.119Z,955.11
2016-11-26T07:53:13.853Z,955.11
2016-11-26T07:54:13.662Z,955.10
2016-11-26T07:55:11.607Z,955.05
2016-11-26T07:56:12.142Z,955.09
2016-11-26T07:57:13.077Z,955.08
2016-11-26T07:58:13.620Z,955.05
2016-11-26T07:59:12.789Z,955.07
2016-11-26T08:00:11.988Z,955.06
2016-11-26T08:01:11.910Z,955.01
2016-11-26T08:02:12.692Z,955.01
2016-11-26T08:03:13.094Z,955.02
2016-11-26T08:04:12.225Z,955.04
2016-11-26T08:05:12.366Z,955.00
2016-11-26T08:06:12.548Z,955.01
2016-11-26T08:07:13.198Z,954.99
2016-11-26T08:08:13.231Z,954.95
2016-11-26T08:09:12.274Z,954.98
2016-11-26T08:10:13.376Z,954.97
2016-11-26T08:11:12.855Z,955.00
2016-11-26T08:12:12.159Z,954.94
2016-11-26T08:13:12.633Z,954.99
2016-11-26T08:14:12.659Z,955.01
2016-11-26T08:15:11.515Z,955.00
2016-11-26T08:16:13.172Z,955.01
2016-11-26T08:17:12.872Z,954.99
2016-11-26T08:18:13.874Z,955.00
2016-11-26T08:19:17.872Z,955.02
2016-11-26T08:20:11.991Z,955.03
2016-11-26T08:21:12.451Z,955.06
2016-11-26T08:22:12.570Z,955.02
2016-11-26T08:23:13.061Z,955.10
2016-11-26T08:24:12.064Z,955.07
2016-11-26T08:25:13.686Z,955.05
2016-11-26T08:26:12.630Z,955.06
2016-11-26T08:27:12.806Z,955.05
2016-11-26T08:28:11.920Z,955.05
2016-11-26T08:29:11.953Z,955.05
2016-11-26T08:30:18.201Z,955.03
2016-11-26T08:31:12.262Z,955.05
2016-11-26T08:32:14.670Z,955.10
2016-11-26T08:33:10.761Z,955.11
2016-11-26T08:34:11.934Z,955.18
2016-11-26T08:35:11.883Z,955.18
2016-11-26T08:36:11.888Z,955.14
2016-11-26T08:37:12.641Z,955.10
2016-11-26T08:38:12.715Z,955.06
2016-11-26T08:39:11.924Z,955.04
2016-11-26T08:40:12.536Z,955.02
2016-11-26T08:41:12.470Z,955.02
2016-11-26T08:42:12.641Z,954.96
2016-11-26T08:43:12.714Z,954.95
2016-11-26T08:44:12.807Z,954.95
2016-11-26T08:45:12.309Z,954.97
2016-11-26T08:46:12.234Z,954.97
2016-11-26T08:47:12.794Z,954.97
2016-11-26T08:48:12.555Z,954.98
2016-11-26T08:49:12.584Z,954.98
2016-11-26T08:50:14.245Z,954.94
2016-11-26T08:51:12.921Z,954.94
2016-11-26T08:52:13.584Z,954.91
2016-11-26T08:53:15.261Z,954.87
2016-11-26T08:54:12.209Z,954.89
2016-11-26T08:55:12.211Z,954.89
2016-11-26T08:56:12.185Z,954.90
2016-11-26T08:57:12.849Z,954.94
2016-11-26T08:58:11.971Z,954.93
2016-11-26T08:59:12.864Z,954.90
2016-11-26T09:00:12.634Z,954.92
2016-11-26T09:01:13.278Z,954.91
2016-11-26T09:02:10.535Z,954.93
2016-11-26T09:03:12.643Z,954.91
2016-11-26T09:04:10.774Z,954.92
2016-11-26T09:05:13.762Z,954.95
2016-11-26T09:06:10.751Z,954.96
2016-11-26T09:07:12.561Z,954.91
2016-11-26T09:08:12.312Z,954.94
2016-11-26T09:09:09.631Z,954.95
2016-11-26T09:10:13.354Z,954.94
2016-11-26T09:11:12.822Z,954.96
2016-11-26T09:12:11.863Z,954.97
2016-11-26T09:13:11.915Z,954.95
2016-11-26T09:14:12.914Z,954.97
2016-11-26T09:15:11.942Z,954.96
2016-11-26T09:16:12.608Z,954.95
2016-11-26T09:17:13.460Z,954.95
2016-11-26T09:18:12.759Z,955.00
2016-11-26T09:19:12.181Z,955.00
2016-11-26T09:20:12.207Z,955.00
2016-11-26T09:21:12.957Z,955.02
2016-11-26T09:22:11.907Z,955.02
2016-11-26T09:23:13.418Z,955.01
2016-11-26T09:24:12.973Z,955.00
2016-11-26T09:25:12.992Z,955.07
2016-11-26T09:26:11.903Z,955.07
2016-11-26T09:27:12.030Z,955.04
2016-11-26T09:28:12.639Z,955.03
2016-11-26T09:29:12.671Z,955.00
2016-11-26T09:30:12.455Z,954.99
2016-11-26T09:31:12.846Z,954.95
2016-11-26T09:32:12.012Z,954.96
2016-11-26T09:33:12.113Z,954.98
2016-11-26T09:34:12.214Z,954.89
2016-11-26T09:35:12.245Z,954.92
2016-11-26T09:36:12.938Z,954.91
2016-11-26T09:37:12.601Z,954.92
2016-11-26T09:38:12.334Z,954.90
2016-11-26T09:39:12.946Z,954.86
2016-11-26T09:40:11.825Z,954.86
2016-11-26T09:41:12.579Z,954.84
2016-11-26T09:42:13.195Z,954.85
2016-11-26T09:43:12.703Z,954.86
2016-11-26T09:44:12.703Z,954.83
2016-11-26T09:45:14.240Z,954.85
2016-11-26T09:46:12.871Z,954.82
2016-11-26T09:47:12.489Z,954.84
2016-11-26T09:48:12.352Z,954.80
2016-11-26T09:49:12.942Z,954.83
2016-11-26T09:50:11.850Z,954.83
2016-11-26T09:51:13.662Z,954.85
2016-11-26T09:52:14.358Z,954.78
2016-11-26T09:53:12.459Z,954.79
2016-11-26T09:54:13.325Z,954.81
2016-11-26T09:55:12.334Z,954.78
2016-11-26T09:56:12.294Z,954.82
2016-11-26T09:57:12.364Z,954.77
2016-11-26T09:58:12.365Z,954.76
2016-11-26T09:59:12.476Z,954.70
2016-11-26T10:00:12.358Z,954.69
2016-11-26T10:01:12.774Z,954.67
2016-11-26T10:02:10.845Z,954.67
2016-11-26T10:03:11.453Z,954.69
2016-11-26T10:04:13.354Z,954.70
2016-11-26T10:05:12.466Z,954.69
2016-11-26T10:06:13.080Z,954.69
2016-11-26T10:07:12.076Z,954.66
2016-11-26T10:08:12.153Z,954.63
2016-11-26T10:09:12.867Z,954.59
2016-11-26T10:10:11.801Z,954.64
2016-11-26T10:11:12.898Z,954.64
2016-11-26T10:12:11.865Z,954.57
2016-11-26T10:13:13.439Z,954.62
2016-11-26T10:14:12.392Z,954.58
2016-11-26T10:15:13.045Z,954.59
2016-11-26T10:16:12.362Z,954.60
2016-11-26T10:17:12.505Z,954.58
2016-11-26T10:18:12.954Z,954.54
2016-11-26T10:19:13.582Z,954.54
2016-11-26T10:20:13.026Z,954.56
2016-11-26T10:21:13.836Z,954.55
2016-11-26T10:22:11.733Z,954.57
2016-11-26T10:23:12.702Z,954.55
2016-11-26T10:24:13.181Z,954.54
2016-11-26T10:25:12.306Z,954.52
2016-11-26T10:26:12.930Z,954.49
2016-11-26T10:27:12.647Z,954.45
2016-11-26T10:28:12.616Z,954.43
2016-11-26T10:29:13.068Z,954.41
2016-11-26T10:30:12.769Z,954.44
2016-11-26T10:31:11.928Z,954.49
2016-11-26T10:32:12.629Z,954.45
2016-11-26T10:33:11.451Z,954.44
2016-11-26T10:34:12.974Z,954.44
2016-11-26T10:35:12.027Z,954.40
2016-11-26T10:36:12.779Z,954.40
2016-11-26T10:37:13.589Z,954.36
2016-11-26T10:38:13.797Z,954.36
2016-11-26T10:39:12.367Z,954.38
2016-11-26T10:40:13.751Z,954.33
2016-11-26T10:41:10.872Z,954.32
2016-11-26T10:42:13.008Z,954.34
2016-11-26T10:43:11.848Z,954.36
2016-11-26T10:44:11.794Z,954.36
2016-11-26T10:45:12.132Z,954.39
2016-11-26T10:46:12.248Z,954.36
2016-11-26T10:47:12.728Z,954.40
2016-11-26T10:48:09.936Z,954.42
2016-11-26T10:49:12.009Z,954.42
2016-11-26T10:50:12.942Z,954.42
2016-11-26T10:51:14.834Z,954.39
2016-11-26T10:52:10.956Z,954.43
2016-11-26T10:53:12.126Z,954.43
2016-11-26T10:54:12.078Z,954.37
2016-11-26T10:55:13.886Z,954.42
2016-11-26T10:56:10.893Z,954.43
2016-11-26T10:57:12.157Z,954.40
2016-11-26T10:58:12.311Z,954.48
2016-11-26T10:59:12.821Z,954.45
2016-11-26T11:00:12.578Z,954.42
2016-11-26T11:01:13.990Z,954.43
2016-11-26T11:02:12.117Z,954.42
2016-11-26T11:03:12.008Z,954.44
2016-11-26T11:04:12.193Z,954.43
2016-11-26T11:05:12.167Z,954.45
2016-11-26T11:06:12.862Z,954.40
2016-11-26T11:07:10.883Z,954.36
2016-11-26T11:08:12.591Z,954.37
2016-11-26T11:09:12.876Z,954.34
2016-11-26T11:10:12.404Z,954.37
2016-11-26T11:11:12.497Z,954.34
2016-11-26T11:12:12.536Z,954.32
2016-11-26T11:13:12.987Z,954.37
2016-11-26T11:14:13.687Z,954.35
2016-11-26T11:15:14.161Z,954.31
2016-11-26T11:16:12.943Z,954.36
2016-11-26T11:17:12.588Z,954.41
2016-11-26T11:18:12.488Z,954.34
2016-11-26T11:19:12.958Z,954.36
2016-11-26T11:20:12.727Z,954.33
2016-11-26T11:21:12.817Z,954.32
2016-11-26T11:22:12.388Z,954.36
2016-11-26T11:23:12.508Z,954.35
2016-11-26T11:24:12.489Z,954.33
2016-11-26T11:25:13.039Z,954.36
2016-11-26T11:26:12.339Z,954.32
2016-11-26T11:27:13.077Z,954.35
2016-11-26T11:28:13.795Z,954.36
2016-11-26T11:29:12.549Z,954.33
2016-11-26T11:30:12.520Z,954.34
2016-11-26T11:31:13.263Z,954.36
2016-11-26T11:32:12.718Z,954.36
2016-11-26T11:33:13.218Z,954.35
2016-11-26T11:34:12.266Z,954.33
2016-11-26T11:35:13.793Z,954.34
2016-11-26T11:36:11.974Z,954.29
2016-11-26T11:37:12.271Z,954.28
2016-11-26T11:38:12.421Z,954.32
2016-11-26T11:39:12.360Z,954.36
2016-11-26T11:40:12.496Z,954.33
2016-11-26T11:41:13.058Z,954.30
2016-11-26T11:42:12.088Z,954.28
2016-11-26T11:43:12.704Z,954.28
2016-11-26T11:44:10.987Z,954.29
2016-11-26T11:45:12.980Z,954.30
2016-11-26T11:46:11.979Z,954.26
2016-11-26T11:47:12.606Z,954.24
2016-11-26T11:48:12.478Z,954.22
2016-11-26T11:49:09.719Z,954.25
2016-11-26T11:50:13.254Z,954.25
2016-11-26T11:51:09.856Z,954.23
2016-11-26T11:52:13.211Z,954.19
2016-11-26T11:53:12.285Z,954.17
2016-11-26T11:54:09.771Z,954.20
2016-11-26T11:55:12.757Z,954.19
2016-11-26T11:56:12.760Z,954.15
2016-11-26T11:57:12.548Z,954.15
2016-11-26T11:58:13.116Z,954.13
2016-11-26T11:59:12.069Z,954.09
2016-11-26T12:00:12.671Z,954.06
2016-11-26T12:01:12.529Z,954.01
2016-11-26T12:02:13.151Z,954.03
2016-11-26T12:03:12.936Z,954.05
2016-11-26T12:04:12.037Z,954.05
2016-11-26T12:05:12.080Z,954.10
2016-11-26T12:06:12.166Z,954.11
2016-11-26T12:07:12.229Z,954.14
2016-11-26T12:08:14.025Z,954.14
2016-11-26T12:09:11.910Z,954.15
2016-11-26T12:10:13.819Z,954.12
2016-11-26T12:11:12.206Z,954.15
2016-11-26T12:12:14.960Z,954.08
2016-11-26T12:13:13.852Z,954.09
2016-11-26T12:14:12.020Z,954.07
2016-11-26T12:15:12.639Z,954.11
2016-11-26T12:16:10.094Z,954.12
2016-11-26T12:17:11.257Z,954.16
2016-11-26T12:18:12.251Z,954.11
2016-11-26T12:19:13.758Z,954.13
2016-11-26T12:20:12.733Z,954.15
2016-11-26T12:21:13.438Z,954.14
2016-11-26T12:22:12.876Z,954.15
2016-11-26T12:23:12.609Z,954.09
2016-11-26T12:24:13.402Z,954.08
2016-11-26T12:25:13.281Z,954.07
2016-11-26T12:26:12.839Z,954.03
2016-11-26T12:27:12.556Z,954.04
2016-11-26T12:28:12.535Z,954.06